createdAt,value
2019-06-26T00:00:25.407Z,1017.22
2019-06-26T00:01:25.501Z,1017.26
2019-06-26T00:02:25.275Z,1017.26
2019-06-26T00:03:25.308Z,1017.27
2019-06-26T00:04:25.106Z,1017.30
2019-06-26T00:05:25.032Z,1017.28
2019-06-26T00:06:25.126Z,1017.25
2019-06-26T00:07:24.890Z,1017.27
2019-06-26T00:08:24.799Z,1017.26
2019-06-26T00:09:24.942Z,1017.25
2019-06-26T00:10:24.638Z,1017.27
2019-06-26T00:11:24.561Z,1017.26
2019-06-26T00:12:24.579Z,1017.26
2019-06-26T00:13:26.741Z,1017.28
2019-06-26T00:14:24.349Z,1017.31
2019-06-26T00:15:24.507Z,1017.30
2019-06-26T00:16:24.204Z,1017.35
2019-06-26T00:17:24.202Z,1017.32
2019-06-26T00:18:24.054Z,1017.35
2019-06-26T00:19:23.982Z,1017.39
2019-06-26T00:20:23.931Z,1017.37
2019-06-26T00:21:23.996Z,1017.42
2019-06-26T00:22:23.738Z,1017.45
2019-06-26T00:23:23.804Z,1017.47
2019-06-26T00:24:23.563Z,1017.46
2019-06-26T00:25:23.615Z,1017.47
2019-06-26T00:26:23.411Z,1017.49
2019-06-26T00:27:23.454Z,1017.52
2019-06-26T00:28:23.261Z,1017.54
2019-06-26T00:29:23.174Z,1017.51
2019-06-26T00:30:23.235Z,1017.52
2019-06-26T00:31:23.028Z,1017.49
2019-06-26T00:32:22.960Z,1017.56
2019-06-26T00:33:23.058Z,1017.56
2019-06-26T00:34:22.796Z,1017.59
2019-06-26T00:35:22.710Z,1017.61
2019-06-26T00:36:22.661Z,1017.60
2019-06-26T00:37:22.582Z,1017.59
2019-06-26T00:38:22.498Z,1017.61
2019-06-26T00:39:22.485Z,1017.62
2019-06-26T00:40:22.326Z,1017.63
2019-06-26T00:41:22.246Z,1017.63
2019-06-26T00:42:22.321Z,1017.64
2019-06-26T00:43:22.103Z,1017.68
2019-06-26T00:44:22.022Z,1017.64
2019-06-26T00:45:22.105Z,1017.63
2019-06-26T00:46:21.872Z,1017.65
2019-06-26T00:47:21.809Z,1017.64
2019-06-26T00:48:21.945Z,1017.65
2019-06-26T00:49:21.642Z,1017.65
2019-06-26T00:50:21.562Z,1017.69
2019-06-26T00:51:21.535Z,1017.67
2019-06-26T00:52:21.414Z,1017.70
2019-06-26T00:53:21.327Z,1017.66
2019-06-26T00:54:21.245Z,1017.68
2019-06-26T00:55:21.352Z,1017.70
2019-06-26T00:56:21.094Z,1017.75
2019-06-26T00:57:21.027Z,1017.76
2019-06-26T00:58:20.936Z,1017.74
2019-06-26T00:59:20.970Z,1017.72
2019-06-26T01:00:20.792Z,1017.75
2019-06-26T01:01:20.778Z,1017.74
2019-06-26T01:02:20.643Z,1017.77
2019-06-26T01:03:20.586Z,1017.74
2019-06-26T01:04:20.475Z,1017.76
2019-06-26T01:05:20.393Z,1017.73
2019-06-26T01:06:20.402Z,1017.77
2019-06-26T01:07:20.248Z,1017.80
2019-06-26T01:08:20.201Z,1017.76
2019-06-26T01:09:20.217Z,1017.76
2019-06-26T01:10:20.016Z,1017.76
2019-06-26T01:11:21.663Z,1017.82
2019-06-26T01:12:19.872Z,1017.83
2019-06-26T01:13:19.836Z,1017.81
2019-06-26T01:14:19.696Z,1017.83
2019-06-26T01:15:19.647Z,1017.82
2019-06-26T01:16:19.545Z,1017.84
2019-06-26T01:17:19.690Z,1017.86
2019-06-26T01:18:19.391Z,1017.82
2019-06-26T01:19:19.306Z,1017.79
2019-06-26T01:20:19.272Z,1017.80
2019-06-26T01:21:19.157Z,1017.78
2019-06-26T01:22:19.097Z,1017.83
2019-06-26T01:23:19.081Z,1017.78
2019-06-26T01:24:18.925Z,1017.84
2019-06-26T01:25:18.854Z,1017.76
2019-06-26T01:26:18.907Z,1017.79
2019-06-26T01:27:18.744Z,1017.81
2019-06-26T01:28:18.610Z,1017.81
2019-06-26T01:29:18.719Z,1017.81
2019-06-26T01:30:18.461Z,1017.82
2019-06-26T01:31:18.519Z,1017.84
2019-06-26T01:32:18.360Z,1017.87
2019-06-26T01:33:18.332Z,1017.87
2019-06-26T01:34:18.142Z,1017.90
2019-06-26T01:35:18.135Z,1017.86
2019-06-26T01:36:17.995Z,1017.88
2019-06-26T01:37:17.976Z,1017.84
2019-06-26T01:38:17.841Z,1017.88
2019-06-26T01:39:17.959Z,1017.89
2019-06-26T01:40:17.678Z,1017.90
2019-06-26T01:41:17.767Z,1017.91
2019-06-26T01:42:17.535Z,1017.89
2019-06-26T01:43:17.575Z,1017.94
2019-06-26T01:44:17.373Z,1017.90
2019-06-26T01:45:17.382Z,1017.92
2019-06-26T01:46:17.220Z,1017.90
2019-06-26T01:47:17.157Z,1017.89
2019-06-26T01:48:17.203Z,1017.90
2019-06-26T01:49:16.981Z,1017.90
2019-06-26T01:50:16.905Z,1017.85
2019-06-26T01:51:17.018Z,1017.90
2019-06-26T01:52:16.761Z,1017.88
2019-06-26T01:53:16.853Z,1017.91
2019-06-26T01:54:16.594Z,1017.87
2019-06-26T01:55:16.516Z,1017.90
2019-06-26T01:56:16.643Z,1017.89
2019-06-26T01:57:16.363Z,1017.90
2019-06-26T01:58:16.302Z,1017.89
2019-06-26T01:59:16.250Z,1017.86
2019-06-26T02:00:16.128Z,1017.88
2019-06-26T02:01:16.053Z,1017.91
2019-06-26T02:02:16.065Z,1017.95
2019-06-26T02:03:15.900Z,1017.90
2019-06-26T02:04:15.919Z,1017.93
2019-06-26T02:05:15.883Z,1017.95
2019-06-26T02:06:15.666Z,1017.93
2019-06-26T02:07:15.578Z,1017.91
2019-06-26T02:08:15.730Z,1017.95
2019-06-26T02:09:15.427Z,1017.96
2019-06-26T02:10:15.352Z,1017.95
2019-06-26T02:11:15.305Z,1018.01
2019-06-26T02:12:15.194Z,1018.02
2019-06-26T02:13:15.129Z,1018.07
2019-06-26T02:14:30.036Z,1018.05
2019-06-26T02:15:14.953Z,1018.05
2019-06-26T02:16:14.879Z,1018.07
2019-06-26T02:17:14.932Z,1018.08
2019-06-26T02:18:14.749Z,1018.08
2019-06-26T02:19:14.646Z,1018.05
2019-06-26T02:20:14.751Z,1018.04
2019-06-26T02:21:14.485Z,1018.07
2019-06-26T02:22:15.582Z,1018.04
2019-06-26T02:23:14.342Z,1018.08
2019-06-26T02:24:14.366Z,1018.06
2019-06-26T02:25:14.174Z,1018.11
2019-06-26T02:26:14.103Z,1018.09
2019-06-26T02:27:14.180Z,1018.12
2019-06-26T02:28:13.955Z,1018.16
2019-06-26T02:29:13.877Z,1018.15
2019-06-26T02:30:13.999Z,1018.12
2019-06-26T02:31:13.709Z,1018.16
2019-06-26T02:32:13.830Z,1018.13
2019-06-26T02:33:13.569Z,1018.14
2019-06-26T02:34:13.612Z,1018.16
2019-06-26T02:35:13.401Z,1018.15
2019-06-26T02:36:13.316Z,1018.16
2019-06-26T02:37:13.249Z,1018.13
2019-06-26T02:38:13.190Z,1018.15
2019-06-26T02:39:13.082Z,1018.17
2019-06-26T02:40:13.006Z,1018.21
2019-06-26T02:41:12.928Z,1018.20
2019-06-26T02:42:13.055Z,1018.19
2019-06-26T02:43:12.787Z,1018.22
2019-06-26T02:44:12.691Z,1018.25
2019-06-26T02:45:12.614Z,1018.25
2019-06-26T02:46:12.677Z,1018.26
2019-06-26T02:47:19.751Z,1018.28
2019-06-26T02:48:12.509Z,1018.30
2019-06-26T02:49:12.302Z,1018.28
2019-06-26T02:50:12.299Z,1018.28
2019-06-26T02:51:12.147Z,1018.29
2019-06-26T02:52:12.065Z,1018.28
2019-06-26T02:53:12.134Z,1018.29
2019-06-26T02:54:11.912Z,1018.37
2019-06-26T02:55:11.839Z,1018.37
2019-06-26T02:56:11.917Z,1018.35
2019-06-26T02:57:11.681Z,1018.38
2019-06-26T02:58:11.617Z,1018.37
2019-06-26T02:59:11.730Z,1018.36
2019-06-26T03:00:11.445Z,1018.41
2019-06-26T03:01:11.362Z,1018.39
2019-06-26T03:02:11.344Z,1018.37
2019-06-26T03:03:11.219Z,1018.40
2019-06-26T03:04:11.152Z,1018.42
2019-06-26T03:05:11.050Z,1018.41
2019-06-26T03:06:11.163Z,1018.42
2019-06-26T03:07:10.895Z,1018.41
2019-06-26T03:08:10.833Z,1018.44
2019-06-26T03:09:10.754Z,1018.46
2019-06-26T03:10:10.666Z,1018.45
2019-06-26T03:11:10.583Z,1018.44
2019-06-26T03:12:10.589Z,1018.45
2019-06-26T03:13:10.440Z,1018.48
2019-06-26T03:14:10.403Z,1018.49
2019-06-26T03:15:10.278Z,1018.43
2019-06-26T03:16:10.408Z,1018.48
2019-06-26T03:17:10.109Z,1018.52
2019-06-26T03:18:10.254Z,1018.51
2019-06-26T03:19:09.963Z,1018.51
2019-06-26T03:20:10.045Z,1018.57
2019-06-26T03:21:09.793Z,1018.54
2019-06-26T03:22:09.721Z,1018.57
2019-06-26T03:23:09.877Z,1018.58
2019-06-26T03:24:09.560Z,1018.58
2019-06-26T03:25:09.490Z,1018.56
2019-06-26T03:26:09.474Z,1018.56
2019-06-26T03:27:09.362Z,1018.55
2019-06-26T03:28:09.260Z,1018.58
2019-06-26T03:29:09.266Z,1018.61
2019-06-26T03:30:09.097Z,1018.63
2019-06-26T03:31:09.023Z,1018.66
2019-06-26T03:32:09.084Z,1018.70
2019-06-26T03:33:08.873Z,1018.71
2019-06-26T03:34:08.892Z,1018.75
2019-06-26T03:35:08.701Z,1018.73
2019-06-26T03:36:08.624Z,1018.75
2019-06-26T03:37:08.554Z,1018.77
2019-06-26T03:38:08.551Z,1018.81
2019-06-26T03:39:08.401Z,1018.79
2019-06-26T03:40:08.309Z,1018.85
2019-06-26T03:41:08.234Z,1018.87
2019-06-26T03:42:08.329Z,1018.85
2019-06-26T03:43:08.133Z,1018.86
2019-06-26T03:44:07.996Z,1018.87
2019-06-26T03:45:24.112Z,1018.88
2019-06-26T03:46:07.842Z,1018.92
2019-06-26T03:47:07.764Z,1018.89
2019-06-26T03:48:07.785Z,1018.97
2019-06-26T03:49:07.605Z,1018.94
2019-06-26T03:50:07.564Z,1019.01
2019-06-26T03:51:07.455Z,1018.98
2019-06-26T03:52:07.575Z,1018.99
2019-06-26T03:53:07.341Z,1019.00
2019-06-26T03:54:07.387Z,1019.03
2019-06-26T03:55:07.131Z,1019.05
2019-06-26T03:56:07.194Z,1019.05
2019-06-26T03:57:06.980Z,1019.03
2019-06-26T03:58:06.904Z,1019.07
2019-06-26T03:59:07.042Z,1019.08
2019-06-26T04:00:06.743Z,1019.08
2019-06-26T04:01:06.669Z,1019.09
2019-06-26T04:02:06.624Z,1019.14
2019-06-26T04:03:06.510Z,1019.12
2019-06-26T04:04:06.460Z,1019.13
2019-06-26T04:05:06.349Z,1019.17
2019-06-26T04:06:06.439Z,1019.14
2019-06-26T04:07:06.215Z,1019.16
2019-06-26T04:08:06.118Z,1019.19
2019-06-26T04:09:06.081Z,1019.15
2019-06-26T04:10:05.958Z,1019.16
2019-06-26T04:11:05.879Z,1019.17
2019-06-26T04:12:05.879Z,1019.17
2019-06-26T04:13:05.723Z,1019.18
2019-06-26T04:14:05.662Z,1019.18
2019-06-26T04:15:05.679Z,1019.21
2019-06-26T04:16:05.493Z,1019.20
2019-06-26T04:17:05.419Z,1019.22
2019-06-26T04:18:05.498Z,1019.20
2019-06-26T04:19:05.266Z,1019.24
2019-06-26T04:20:05.307Z,1019.23
2019-06-26T04:21:05.110Z,1019.28
2019-06-26T04:22:05.116Z,1019.27
2019-06-26T04:23:04.945Z,1019.32
2019-06-26T04:24:04.969Z,1019.32
2019-06-26T04:25:04.787Z,1019.37
2019-06-26T04:26:04.729Z,1019.36
2019-06-26T04:27:04.632Z,1019.43
2019-06-26T04:28:06.401Z,1019.42
2019-06-26T04:29:04.485Z,1019.48
2019-06-26T04:30:04.553Z,1019.46
2019-06-26T04:31:04.314Z,1019.49
2019-06-26T04:32:04.361Z,1019.45
2019-06-26T04:33:04.167Z,1019.47
2019-06-26T04:34:04.199Z,1019.47
2019-06-26T04:35:04.007Z,1019.47
2019-06-26T04:36:03.978Z,1019.48
2019-06-26T04:37:03.849Z,1019.55
2019-06-26T04:38:03.989Z,1019.52
2019-06-26T04:39:03.706Z,1019.55
2019-06-26T04:40:03.805Z,1019.57
2019-06-26T04:41:03.546Z,1019.55
2019-06-26T04:42:03.633Z,1019.55
2019-06-26T04:43:03.385Z,1019.57
2019-06-26T04:44:03.313Z,1019.57
2019-06-26T04:45:03.227Z,1019.61
2019-06-26T04:46:03.225Z,1019.64
2019-06-26T04:47:03.076Z,1019.63
2019-06-26T04:48:05.972Z,1019.64
2019-06-26T04:49:02.930Z,1019.62
2019-06-26T04:50:03.050Z,1019.69
2019-06-26T04:51:02.764Z,1019.67
2019-06-26T04:52:02.680Z,1019.69
2019-06-26T04:53:02.612Z,1019.71
2019-06-26T04:54:02.544Z,1019.70
2019-06-26T04:55:02.447Z,1019.69
2019-06-26T04:56:02.472Z,1019.72
2019-06-26T04:57:02.301Z,1019.71
2019-06-26T04:58:02.220Z,1019.73
2019-06-26T04:59:02.316Z,1019.69
2019-06-26T05:00:02.190Z,1019.73
2019-06-26T05:01:02.000Z,1019.74
2019-06-26T05:02:02.102Z,1019.64
2019-06-26T05:03:01.829Z,1019.72
2019-06-26T05:04:01.823Z,1019.71
2019-06-26T05:05:01.744Z,1019.68
2019-06-26T05:06:01.609Z,1019.72
2019-06-26T05:07:01.522Z,1019.73
2019-06-26T05:08:01.529Z,1019.72
2019-06-26T05:09:01.383Z,1019.75
2019-06-26T05:10:01.345Z,1019.77
2019-06-26T05:11:01.222Z,1019.80
2019-06-26T05:12:01.157Z,1019.82
2019-06-26T05:13:01.069Z,1019.79
2019-06-26T05:14:01.051Z,1019.86
2019-06-26T05:15:00.904Z,1019.86
2019-06-26T05:16:13.820Z,1019.85
2019-06-26T05:17:00.754Z,1019.84
2019-06-26T05:18:00.691Z,1019.88
2019-06-26T05:19:00.617Z,1019.86
2019-06-26T05:20:00.531Z,1019.85
2019-06-26T05:21:00.455Z,1019.88
2019-06-26T05:22:00.389Z,1019.84
2019-06-26T05:23:00.294Z,1019.82
2019-06-26T05:24:00.234Z,1019.85
2019-06-26T05:25:00.240Z,1019.91
2019-06-26T05:26:00.068Z,1019.87
2019-06-26T05:26:59.999Z,1019.92
2019-06-26T05:28:00.020Z,1019.92
2019-06-26T05:28:59.849Z,1019.92
2019-06-26T05:29:59.790Z,1019.93
2019-06-26T05:30:59.686Z,1019.96
2019-06-26T05:31:59.609Z,1019.94
2019-06-26T05:32:59.645Z,1019.99
2019-06-26T05:33:59.478Z,1020.02
2019-06-26T05:34:59.384Z,1020.01
2019-06-26T05:35:59.303Z,1020.10
2019-06-26T05:36:59.295Z,1020.10
2019-06-26T05:37:59.158Z,1020.09
2019-06-26T05:38:59.101Z,1020.13
2019-06-26T05:39:59.075Z,1020.16
2019-06-26T05:40:58.928Z,1020.16
2019-06-26T05:41:58.852Z,1020.17
2019-06-26T05:42:58.893Z,1020.20
2019-06-26T05:43:58.711Z,1020.22
2019-06-26T05:44:58.624Z,1020.21
2019-06-26T05:45:58.763Z,1020.24
2019-06-26T05:46:58.471Z,1020.25
2019-06-26T05:47:58.399Z,1020.25
2019-06-26T05:48:58.336Z,1020.24
2019-06-26T05:49:58.324Z,1020.29
2019-06-26T05:50:58.192Z,1020.30
2019-06-26T05:51:58.096Z,1020.37
2019-06-26T05:52:58.022Z,1020.38
2019-06-26T05:53:58.197Z,1020.38
2019-06-26T05:54:57.876Z,1020.34
2019-06-26T05:55:57.804Z,1020.33
2019-06-26T05:56:57.727Z,1020.38
2019-06-26T05:57:57.761Z,1020.37
2019-06-26T05:58:57.591Z,1020.37
2019-06-26T05:59:57.547Z,1020.39
2019-06-26T06:00:57.439Z,1020.37
2019-06-26T06:01:57.379Z,1020.33
2019-06-26T06:02:57.280Z,1020.34
2019-06-26T06:03:57.214Z,1020.36
2019-06-26T06:04:57.200Z,1020.37
2019-06-26T06:05:57.068Z,1020.39
2019-06-26T06:06:56.978Z,1020.44
2019-06-26T06:07:57.010Z,1020.44
2019-06-26T06:08:56.902Z,1020.51
2019-06-26T06:09:56.852Z,1020.48
2019-06-26T06:10:58.313Z,1020.51
2019-06-26T06:11:56.625Z,1020.51
2019-06-26T06:12:56.534Z,1020.51
2019-06-26T06:13:56.474Z,1020.52
2019-06-26T06:14:56.475Z,1020.57
2019-06-26T06:15:56.307Z,1020.60
2019-06-26T06:16:56.236Z,1020.60
2019-06-26T06:17:56.257Z,1020.64
2019-06-26T06:18:56.094Z,1020.60
2019-06-26T06:19:56.024Z,1020.62
2019-06-26T06:20:56.073Z,1020.65
2019-06-26T06:21:55.871Z,1020.66
2019-06-26T06:22:55.791Z,1020.69
2019-06-26T06:23:55.892Z,1020.71
2019-06-26T06:24:55.878Z,1020.72
2019-06-26T06:25:55.587Z,1020.69
2019-06-26T06:26:55.706Z,1020.73
2019-06-26T06:27:55.424Z,1020.77
2019-06-26T06:28:55.376Z,1020.74
2019-06-26T06:29:55.548Z,1020.72
2019-06-26T06:30:55.204Z,1020.75
2019-06-26T06:31:55.330Z,1020.75
2019-06-26T06:32:55.070Z,1020.78
2019-06-26T06:33:54.989Z,1020.76
2019-06-26T06:34:54.970Z,1020.77
2019-06-26T06:35:54.837Z,1020.77
2019-06-26T06:36:54.765Z,1020.80
2019-06-26T06:37:54.749Z,1020.79
2019-06-26T06:38:54.617Z,1020.84
2019-06-26T06:39:54.563Z,1020.91
2019-06-26T06:40:54.569Z,1020.95
2019-06-26T06:41:54.408Z,1020.88
2019-06-26T06:42:54.328Z,1020.91
2019-06-26T06:43:54.283Z,1020.93
2019-06-26T06:44:54.201Z,1020.90
2019-06-26T06:45:54.191Z,1020.89
2019-06-26T06:47:04.066Z,1020.90
2019-06-26T06:47:54.026Z,1020.94
2019-06-26T06:48:53.910Z,1020.96
2019-06-26T06:49:54.040Z,1020.98
2019-06-26T06:50:53.755Z,1021.01
2019-06-26T06:51:53.820Z,1020.97
2019-06-26T06:52:53.619Z,1021.02
2019-06-26T06:53:53.628Z,1021.03
2019-06-26T06:54:53.490Z,1021.06
2019-06-26T06:55:53.436Z,1021.10
2019-06-26T06:56:53.323Z,1021.08
2019-06-26T06:57:53.448Z,1021.17
2019-06-26T06:58:53.207Z,1021.04
2019-06-26T06:59:53.295Z,1021.05
2019-06-26T07:00:53.089Z,1021.10
2019-06-26T07:01:53.067Z,1021.17
2019-06-26T07:02:52.899Z,1021.16
2019-06-26T07:03:52.873Z,1021.20
2019-06-26T07:04:52.769Z,1021.21
2019-06-26T07:05:52.686Z,1021.33
2019-06-26T07:06:52.846Z,1021.32
2019-06-26T07:07:52.543Z,1021.34
2019-06-26T07:08:52.493Z,1021.44
2019-06-26T07:09:52.561Z,1021.51
2019-06-26T07:10:52.331Z,1021.56
2019-06-26T07:11:52.316Z,1021.74
2019-06-26T07:12:52.193Z,1022.01
2019-06-26T07:13:52.500Z,1022.56
2019-06-26T07:14:52.079Z,1023.48
2019-06-26T07:16:06.926Z,1023.14
2019-06-26T07:16:51.907Z,1024.88
2019-06-26T07:17:51.840Z,1026.06
2019-06-26T07:18:51.977Z,1027.14
2019-06-26T07:19:51.716Z,1027.92
2019-06-26T07:20:51.627Z,1028.34
2019-06-26T07:21:51.767Z,1029.14
2019-06-26T07:22:51.495Z,1030.29
2019-06-26T07:23:51.418Z,1031.22
2019-06-26T07:24:51.376Z,1031.59
2019-06-26T07:25:52.981Z,1031.23
2019-06-26T07:26:52.657Z,1032.94
2019-06-26T07:27:51.148Z,1034.80
2019-06-26T07:28:51.201Z,1036.07
2019-06-26T07:29:51.017Z,1036.98
2019-06-26T07:30:50.936Z,1037.58
2019-06-26T07:31:51.018Z,1038.43
2019-06-26T07:32:50.867Z,1038.53
2019-06-26T07:33:50.760Z,1038.89
2019-06-26T07:34:50.750Z,1039.88
2019-06-26T07:35:50.587Z,1040.47
2019-06-26T07:36:50.643Z,1040.67
2019-06-26T07:37:50.463Z,1041.12
2019-06-26T07:38:51.563Z,1041.18
2019-06-26T07:39:50.326Z,1040.83
2019-06-26T07:40:50.343Z,1039.54
2019-06-26T07:41:50.195Z,1032.11
2019-06-26T07:42:50.156Z,1036.25
2019-06-26T07:43:50.048Z,1022.25
2019-06-26T07:44:49.989Z,1022.21
2019-06-26T07:45:49.972Z,1022.08
2019-06-26T07:46:49.843Z,1022.06
2019-06-26T07:47:49.770Z,1022.01
2019-06-26T07:48:49.900Z,1021.98
2019-06-26T07:49:49.643Z,1021.96
2019-06-26T07:50:49.564Z,1021.90
2019-06-26T07:51:49.710Z,1021.87
2019-06-26T07:52:49.505Z,1021.88
2019-06-26T07:53:49.364Z,1021.88
2019-06-26T07:54:49.308Z,1021.82
2019-06-26T07:55:49.227Z,1021.85
2019-06-26T07:56:49.184Z,1021.82
2019-06-26T07:57:49.136Z,1021.90
2019-06-26T07:58:49.016Z,1021.84
2019-06-26T07:59:49.014Z,1021.88
2019-06-26T08:00:48.899Z,1021.90
2019-06-26T08:01:48.820Z,1021.90
2019-06-26T08:02:48.759Z,1021.93
2019-06-26T08:03:48.690Z,1021.90
2019-06-26T08:04:48.656Z,1021.94
2019-06-26T08:05:48.544Z,1021.92
2019-06-26T08:06:48.583Z,1021.92
2019-06-26T08:07:48.415Z,1021.90
2019-06-26T08:08:48.371Z,1021.87
2019-06-26T08:09:48.428Z,1021.84
2019-06-26T08:10:48.206Z,1021.90
2019-06-26T08:11:48.171Z,1021.85
2019-06-26T08:12:48.073Z,1021.81
2019-06-26T08:13:48.222Z,1021.88
2019-06-26T08:14:47.964Z,1021.91
2019-06-26T08:15:47.878Z,1021.92
2019-06-26T08:16:47.810Z,1021.93
2019-06-26T08:17:59.727Z,1021.90
2019-06-26T08:18:47.700Z,1021.91
2019-06-26T08:19:47.624Z,1021.94
2019-06-26T08:21:07.261Z,1021.97
2019-06-26T08:21:47.498Z,1022.00
2019-06-26T08:22:47.406Z,1021.99
2019-06-26T08:23:47.470Z,1021.97
2019-06-26T08:24:47.297Z,1021.98
2019-06-26T08:25:47.206Z,1021.95
2019-06-26T08:26:47.280Z,1021.94
2019-06-26T08:27:47.079Z,1021.97
2019-06-26T08:28:47.063Z,1021.96
2019-06-26T08:29:47.136Z,1021.95
2019-06-26T08:30:46.886Z,1021.97
2019-06-26T08:31:46.905Z,1022.02
2019-06-26T08:32:46.749Z,1022.02
2019-06-26T08:33:47.738Z,1021.95
2019-06-26T08:34:46.637Z,1022.03
2019-06-26T08:35:46.550Z,1022.01
2019-06-26T08:36:46.590Z,1022.02
2019-06-26T08:37:46.542Z,1022.01
2019-06-26T08:38:46.371Z,1022.01
2019-06-26T08:39:46.300Z,1022.06
2019-06-26T08:40:46.237Z,1022.00
2019-06-26T08:41:46.155Z,1022.03
2019-06-26T08:42:46.158Z,1022.02
2019-06-26T08:43:46.027Z,1022.07
2019-06-26T08:44:46.018Z,1022.10
2019-06-26T08:45:45.930Z,1026.01
2019-06-26T08:46:45.873Z,1022.05
2019-06-26T08:47:45.782Z,1022.21
2019-06-26T08:48:45.706Z,1022.48
2019-06-26T08:49:45.798Z,1022.04
2019-06-26T08:50:45.630Z,1022.87
2019-06-26T08:51:45.521Z,1024.17
2019-06-26T08:52:45.451Z,1023.78
2019-06-26T08:53:45.376Z,1023.52
2019-06-26T08:54:45.315Z,1023.46
2019-06-26T08:55:45.266Z,1023.36
2019-06-26T08:56:45.193Z,1023.29
2019-06-26T08:57:45.169Z,1023.28
2019-06-26T08:58:45.058Z,1023.11
2019-06-26T08:59:44.987Z,1022.99
2019-06-26T09:00:44.955Z,1022.79
2019-06-26T09:01:44.894Z,1022.78
2019-06-26T09:02:44.790Z,1022.81
2019-06-26T09:03:44.733Z,1022.73
2019-06-26T09:04:44.668Z,1022.58
2019-06-26T09:05:48.481Z,1022.67
2019-06-26T09:06:44.535Z,1022.67
2019-06-26T09:07:44.536Z,1022.64
2019-06-26T09:08:44.429Z,1022.66
2019-06-26T09:09:44.343Z,1022.55
2019-06-26T09:10:45.262Z,1022.51
2019-06-26T09:11:44.215Z,1022.54
2019-06-26T09:12:44.159Z,1022.59
2019-06-26T09:13:44.086Z,1022.60
2019-06-26T09:14:44.036Z,1022.68
2019-06-26T09:15:43.973Z,1022.61
2019-06-26T09:16:43.891Z,1022.59
2019-06-26T09:17:43.849Z,1022.62
2019-06-26T09:18:43.768Z,1022.59
2019-06-26T09:19:43.702Z,1022.59
2019-06-26T09:20:43.693Z,1022.68
2019-06-26T09:21:43.575Z,1022.57
2019-06-26T09:22:43.522Z,1022.58
2019-06-26T09:23:43.455Z,1022.58
2019-06-26T09:24:43.394Z,1022.67
2019-06-26T09:25:43.338Z,1022.60
2019-06-26T09:26:43.266Z,1022.60
2019-06-26T09:27:43.194Z,1022.68
2019-06-26T09:28:43.151Z,1022.62
2019-06-26T09:29:43.073Z,1022.61
2019-06-26T09:30:43.028Z,1022.61
2019-06-26T09:31:42.944Z,1022.54
2019-06-26T09:32:42.890Z,1022.52
2019-06-26T09:33:42.818Z,1022.50
2019-06-26T09:34:42.786Z,1022.57
2019-06-26T09:35:42.705Z,1022.54
2019-06-26T09:36:42.625Z,1022.61
2019-06-26T09:37:42.576Z,1022.70
2019-06-26T09:38:42.500Z,1022.75
2019-06-26T09:39:42.438Z,1022.74
2019-06-26T09:40:42.399Z,1022.67
2019-06-26T09:41:42.310Z,1022.72
2019-06-26T09:42:42.256Z,1022.73
2019-06-26T09:43:42.183Z,1022.85
2019-06-26T09:44:42.131Z,1022.89
2019-06-26T09:45:42.074Z,1023.08
2019-06-26T09:46:42.020Z,1023.13
2019-06-26T09:47:41.938Z,1023.27
2019-06-26T09:48:52.309Z,1023.34
2019-06-26T09:49:41.923Z,1023.37
2019-06-26T09:50:41.763Z,1023.36
2019-06-26T09:51:41.690Z,1023.36
2019-06-26T09:52:41.619Z,1023.37
2019-06-26T09:53:46.994Z,1023.34
2019-06-26T09:54:41.498Z,1023.23
2019-06-26T09:55:41.446Z,1023.25
2019-06-26T09:56:41.375Z,1023.27
2019-06-26T09:57:41.311Z,1023.31
2019-06-26T09:58:41.302Z,1023.45
2019-06-26T09:59:41.192Z,1023.54
2019-06-26T10:00:41.140Z,1023.47
2019-06-26T10:01:41.065Z,1023.47
2019-06-26T10:02:41.022Z,1023.42
2019-06-26T10:03:44.074Z,1023.42
2019-06-26T10:04:40.879Z,1023.40
2019-06-26T10:05:40.826Z,1023.34
2019-06-26T10:06:40.768Z,1023.38
2019-06-26T10:07:40.687Z,1023.48
2019-06-26T10:08:40.635Z,1023.45
2019-06-26T10:09:40.570Z,1023.44
2019-06-26T10:10:40.531Z,1023.52
2019-06-26T10:11:40.451Z,1023.48
2019-06-26T10:12:40.385Z,1023.41
2019-06-26T10:13:40.322Z,1023.37
2019-06-26T10:14:47.222Z,1023.24
2019-06-26T10:15:40.217Z,1023.20
2019-06-26T10:16:40.142Z,1023.29
2019-06-26T10:17:40.076Z,1023.18
2019-06-26T10:18:40.120Z,1023.00
2019-06-26T10:19:39.960Z,1022.87
2019-06-26T10:20:39.910Z,1022.87
2019-06-26T10:21:39.830Z,1022.79
2019-06-26T10:22:39.769Z,1022.73
2019-06-26T10:23:39.728Z,1022.69
2019-06-26T10:24:39.669Z,1022.63
2019-06-26T10:25:39.606Z,1022.44
2019-06-26T10:26:39.525Z,1022.36
2019-06-26T10:27:39.459Z,1022.30
2019-06-26T10:28:39.405Z,1022.23
2019-06-26T10:29:39.369Z,1022.10
2019-06-26T10:30:39.564Z,1022.07
2019-06-26T10:31:39.228Z,1022.00
2019-06-26T10:32:39.158Z,1022.05
2019-06-26T10:33:39.087Z,1022.02
2019-06-26T10:34:39.036Z,1022.04
2019-06-26T10:35:38.979Z,1022.07
2019-06-26T10:36:38.906Z,1022.20
2019-06-26T10:37:38.862Z,1022.16
2019-06-26T10:38:38.812Z,1022.17
2019-06-26T10:39:38.719Z,1022.14
2019-06-26T10:40:38.681Z,1022.17
2019-06-26T10:41:38.615Z,1022.21
2019-06-26T10:42:38.542Z,1022.28
2019-06-26T10:43:38.489Z,1022.34
2019-06-26T10:44:38.411Z,1022.28
2019-06-26T10:45:38.371Z,1022.25
2019-06-26T10:46:38.298Z,1022.20
2019-06-26T10:47:39.853Z,1022.30
2019-06-26T10:48:38.174Z,1022.33
2019-06-26T10:49:38.118Z,1022.32
2019-06-26T10:50:48.247Z,1022.31
2019-06-26T10:51:37.990Z,1022.32
2019-06-26T10:52:37.963Z,1022.15
2019-06-26T10:53:37.884Z,1022.27
2019-06-26T10:54:37.807Z,1022.18
2019-06-26T10:55:37.757Z,1022.08
2019-06-26T10:56:37.683Z,1022.05
2019-06-26T10:57:37.623Z,1022.01
2019-06-26T10:58:37.569Z,1022.00
2019-06-26T10:59:37.497Z,1021.92
2019-06-26T11:00:37.458Z,1021.84
2019-06-26T11:01:37.382Z,1021.97
2019-06-26T11:02:37.316Z,1022.10
2019-06-26T11:03:37.252Z,1022.05
2019-06-26T11:04:37.223Z,1021.98
2019-06-26T11:05:37.242Z,1022.03
2019-06-26T11:06:37.376Z,1022.11
2019-06-26T11:07:37.007Z,1022.08
2019-06-26T11:08:36.954Z,1022.13
2019-06-26T11:09:36.890Z,1022.16
2019-06-26T11:10:36.878Z,1022.15
2019-06-26T11:11:36.776Z,1022.21
2019-06-26T11:12:36.727Z,1022.16
2019-06-26T11:13:36.802Z,1022.23
2019-06-26T11:14:36.584Z,1022.23
2019-06-26T11:15:36.535Z,1022.23
2019-06-26T11:16:36.483Z,1022.18
2019-06-26T11:17:36.442Z,1022.24
2019-06-26T11:18:36.341Z,1022.24
2019-06-26T11:19:43.846Z,1022.18
2019-06-26T11:20:36.231Z,1022.15
2019-06-26T11:21:36.168Z,1022.06
2019-06-26T11:22:36.105Z,1022.12
2019-06-26T11:23:36.038Z,1022.13
2019-06-26T11:24:35.980Z,1022.19
2019-06-26T11:25:35.917Z,1022.14
2019-06-26T11:26:35.875Z,1022.13
2019-06-26T11:27:35.802Z,1022.11
2019-06-26T11:28:35.737Z,1022.12
2019-06-26T11:29:35.671Z,1022.13
2019-06-26T11:30:35.623Z,1022.11
2019-06-26T11:31:35.565Z,1022.01
2019-06-26T11:32:35.491Z,1022.11
2019-06-26T11:33:35.439Z,1022.10
2019-06-26T11:34:35.364Z,1022.15
2019-06-26T11:35:35.314Z,1022.15
2019-06-26T11:36:35.274Z,1022.12
2019-06-26T11:37:35.190Z,1022.14
2019-06-26T11:38:35.125Z,1022.09
2019-06-26T11:39:35.068Z,1022.06
2019-06-26T11:40:35.011Z,1022.09
2019-06-26T11:41:34.961Z,1022.14
2019-06-26T11:42:34.940Z,1022.15
2019-06-26T11:43:34.824Z,1022.16
2019-06-26T11:44:34.791Z,1022.13
2019-06-26T11:45:34.704Z,1022.06
2019-06-26T11:46:36.940Z,1022.10
2019-06-26T11:47:34.582Z,1022.07
2019-06-26T11:48:34.525Z,1022.03
2019-06-26T11:49:34.459Z,1022.05
2019-06-26T11:50:34.400Z,1022.03
2019-06-26T11:51:34.361Z,1022.11
2019-06-26T11:52:34.488Z,1022.06
2019-06-26T11:53:34.212Z,1022.07
2019-06-26T11:54:34.165Z,1022.07
2019-06-26T11:55:34.091Z,1022.01
2019-06-26T11:56:34.050Z,1022.02
2019-06-26T11:57:33.969Z,1022.01
2019-06-26T11:58:33.910Z,1022.01
2019-06-26T11:59:33.850Z,1021.99
2019-06-26T12:00:33.803Z,1021.98
2019-06-26T12:01:33.738Z,1022.00
2019-06-26T12:02:33.671Z,1021.95
2019-06-26T12:03:33.600Z,1022.02
2019-06-26T12:04:33.548Z,1021.97